sensor_id;sensor_type;location;lat;lon;timestamp;temperature;humidity
17341;DHT22;8788;49.930;8.660;2023-04-03T00:02:14;7.10;99.90
17341;DHT22;8788;49.930;8.660;2023-04-03T00:04:41;7.00;99.90
17341;DHT22;8788;49.930;8.660;2023-04-03T00:07:08;7.10;99.90
17341;DHT22;8788;49.930;8.660;2023-04-03T00:09:35;7.10;99.90
17341;DHT22;8788;49.930;8.660;2023-04-03T00:12:02;7.10;99.90
17341;DHT22;8788;49.930;8.660;2023-04-03T00:14:29;7.10;99.90
17341;DHT22;8788;49.930;8.660;2023-04-03T00:16:58;7.10;99.90
17341;DHT22;8788;49.930;8.660;2023-04-03T00:19:25;7.10;99.90
17341;DHT22;8788;49.930;8.660;2023-04-03T00:21:52;7.10;99.90
17341;DHT22;8788;49.930;8.660;2023-04-03T00:24:20;7.10;99.90
17341;DHT22;8788;49.930;8.660;2023-04-03T00:26:47;7.10;99.90
17341;DHT22;8788;49.930;8.660;2023-04-03T00:29:14;7.10;99.90
17341;DHT22;8788;49.930;8.660;2023-04-03T00:31:41;7.10;99.90
17341;DHT22;8788;49.930;8.660;2023-04-03T00:34:09;7.10;99.90
17341;DHT22;8788;49.930;8.660;2023-04-03T00:36:36;7.00;99.90
17341;DHT22;8788;49.930;8.660;2023-04-03T00:39:03;7.00;99.90
17341;DHT22;8788;49.930;8.660;2023-04-03T00:41:31;7.00;99.90
17341;DHT22;8788;49.930;8.660;2023-04-03T00:43:58;7.10;99.90
17341;DHT22;8788;49.930;8.660;2023-04-03T00:46:25;7.10;99.90
17341;DHT22;8788;49.930;8.660;2023-04-03T00:48:52;7.10;99.90
17341;DHT22;8788;49.930;8.660;2023-04-03T00:51:23;7.10;99.90
17341;DHT22;8788;49.930;8.660;2023-04-03T00:53:54;7.00;99.90
17341;DHT22;8788;49.930;8.660;2023-04-03T00:56:23;7.00;99.90
17341;DHT22;8788;49.930;8.660;2023-04-03T00:58:56;7.00;99.90
17341;DHT22;8788;49.930;8.660;2023-04-03T01:01:26;7.00;99.90
17341;DHT22;8788;49.930;8.660;2023-04-03T01:03:53;7.00;99.90
17341;DHT22;8788;49.930;8.660;2023-04-03T01:06:27;7.00;99.90
17341;DHT22;8788;49.930;8.660;2023-04-03T01:09:02;7.00;99.90
17341;DHT22;8788;49.930;8.660;2023-04-03T01:11:30;7.00;99.90
17341;DHT22;8788;49.930;8.660;2023-04-03T01:13:57;7.10;99.90
17341;DHT22;8788;49.930;8.660;2023-04-03T01:16:25;7.10;99.90
17341;DHT22;8788;49.930;8.660;2023-04-03T01:18:53;7.10;99.90
17341;DHT22;8788;49.930;8.660;2023-04-03T01:21:47;7.10;99.90
17341;DHT22;8788;49.930;8.660;2023-04-03T01:24:30;7.00;99.90
17341;DHT22;8788;49.930;8.660;2023-04-03T01:27:01;7.00;99.90
17341;DHT22;8788;49.930;8.660;2023-04-03T01:29:29;7.00;99.90
17341;DHT22;8788;49.930;8.660;2023-04-03T01:32:01;7.00;99.90
17341;DHT22;8788;49.930;8.660;2023-04-03T01:34:30;7.00;99.90
17341;DHT22;8788;49.930;8.660;2023-04-03T01:36:58;7.00;99.90
17341;DHT22;8788;49.930;8.660;2023-04-03T01:39:25;7.10;99.90
17341;DHT22;8788;49.930;8.660;2023-04-03T01:41:52;7.00;99.90
17341;DHT22;8788;49.930;8.660;2023-04-03T01:44:29;7.10;99.90
17341;DHT22;8788;49.930;8.660;2023-04-03T01:46:56;7.00;99.90
17341;DHT22;8788;49.930;8.660;2023-04-03T01:49:26;7.10;99.90
17341;DHT22;8788;49.930;8.660;2023-04-03T01:51:54;7.10;99.90
17341;DHT22;8788;49.930;8.660;2023-04-03T01:54:21;7.10;99.90
17341;DHT22;8788;49.930;8.660;2023-04-03T01:56:48;7.00;99.90
17341;DHT22;8788;49.930;8.660;2023-04-03T01:59:15;7.00;99.90
17341;DHT22;8788;49.930;8.660;2023-04-03T02:01:44;7.10;99.90
17341;DHT22;8788;49.930;8.660;2023-04-03T02:04:12;7.10;99.90
17341;DHT22;8788;49.930;8.660;2023-04-03T02:06:41;7.10;99.90
17341;DHT22;8788;49.930;8.660;2023-04-03T02:09:08;7.10;99.90
17341;DHT22;8788;49.930;8.660;2023-04-03T02:11:35;7.10;99.90
17341;DHT22;8788;49.930;8.660;2023-04-03T02:14:03;7.10;99.90
17341;DHT22;8788;49.930;8.660;2023-04-03T02:16:31;7.10;99.90
17341;DHT22;8788;49.930;8.660;2023-04-03T02:18:58;7.00;99.90
17341;DHT22;8788;49.930;8.660;2023-04-03T02:21:25;7.00;99.90
17341;DHT22;8788;49.930;8.660;2023-04-03T02:23:54;6.90;99.90
17341;DHT22;8788;49.930;8.660;2023-04-03T02:26:23;6.90;99.90
17341;DHT22;8788;49.930;8.660;2023-04-03T02:29:28;6.80;99.90
17341;DHT22;8788;49.930;8.660;2023-04-03T02:32:04;6.90;99.90
17341;DHT22;8788;49.930;8.660;2023-04-03T02:34:33;6.80;99.90
17341;DHT22;8788;49.930;8.660;2023-04-03T02:37:01;6.80;99.90
17341;DHT22;8788;49.930;8.660;2023-04-03T02:39:29;6.90;99.90
17341;DHT22;8788;49.930;8.660;2023-04-03T02:41:58;6.80;99.90
17341;DHT22;8788;49.930;8.660;2023-04-03T02:44:27;6.80;99.90
17341;DHT22;8788;49.930;8.660;2023-04-03T02:46:54;6.80;99.90
17341;DHT22;8788;49.930;8.660;2023-04-03T02:49:22;6.80;99.90
17341;DHT22;8788;49.930;8.660;2023-04-03T02:51:50;6.80;99.90
17341;DHT22;8788;49.930;8.660;2023-04-03T02:54:17;6.70;99.90
17341;DHT22;8788;49.930;8.660;2023-04-03T02:56:50;6.70;99.90
17341;DHT22;8788;49.930;8.660;2023-04-03T02:59:17;6.70;99.90
17341;DHT22;8788;49.930;8.660;2023-04-03T03:01:45;6.70;99.90
17341;DHT22;8788;49.930;8.660;2023-04-03T03:04:12;6.60;99.90
17341;DHT22;8788;49.930;8.660;2023-04-03T03:06:40;6.70;99.90
17341;DHT22;8788;49.930;8.660;2023-04-03T03:09:07;6.70;99.90
17341;DHT22;8788;49.930;8.660;2023-04-03T03:11:34;6.70;99.90
17341;DHT22;8788;49.930;8.660;2023-04-03T03:14:03;6.70;99.90
17341;DHT22;8788;49.930;8.660;2023-04-03T03:16:30;6.70;99.90
17341;DHT22;8788;49.930;8.660;2023-04-03T03:18:57;6.80;99.90
17341;DHT22;8788;49.930;8.660;2023-04-03T03:21:25;6.70;99.90
17341;DHT22;8788;49.930;8.660;2023-04-03T03:23:53;6.70;99.90
17341;DHT22;8788;49.930;8.660;2023-04-03T03:26:20;6.60;99.90
17341;DHT22;8788;49.930;8.660;2023-04-03T03:28:47;6.50;99.90
17341;DHT22;8788;49.930;8.660;2023-04-03T03:31:15;6.60;99.90
17341;DHT22;8788;49.930;8.660;2023-04-03T03:33:42;6.60;99.90
17341;DHT22;8788;49.930;8.660;2023-04-03T03:36:09;6.60;99.90
17341;DHT22;8788;49.930;8.660;2023-04-03T03:38:37;6.60;99.90
17341;DHT22;8788;49.930;8.660;2023-04-03T03:41:05;6.60;99.90
17341;DHT22;8788;49.930;8.660;2023-04-03T03:43:33;6.60;99.90
17341;DHT22;8788;49.930;8.660;2023-04-03T03:46:02;6.60;99.90
17341;DHT22;8788;49.930;8.660;2023-04-03T03:48:30;6.60;99.90
17341;DHT22;8788;49.930;8.660;2023-04-03T03:50:58;6.50;99.90
17341;DHT22;8788;49.930;8.660;2023-04-03T03:53:29;6.60;99.90
17341;DHT22;8788;49.930;8.660;2023-04-03T03:56:00;6.60;99.90
17341;DHT22;8788;49.930;8.660;2023-04-03T03:58:29;6.60;99.90
17341;DHT22;8788;49.930;8.660;2023-04-03T04:00:57;6.60;99.90
17341;DHT22;8788;49.930;8.660;2023-04-03T04:03:26;6.60;99.90
17341;DHT22;8788;49.930;8.660;2023-04-03T04:05:58;6.50;99.90
17341;DHT22;8788;49.930;8.660;2023-04-03T04:08:25;6.50;99.90
17341;DHT22;8788;49.930;8.660;2023-04-03T04:10:52;6.40;99.90
17341;DHT22;8788;49.930;8.660;2023-04-03T04:13:19;6.40;99.90
17341;DHT22;8788;49.930;8.660;2023-04-03T04:15:46;6.40;99.90
17341;DHT22;8788;49.930;8.660;2023-04-03T04:18:15;6.30;99.90
17341;DHT22;8788;49.930;8.660;2023-04-03T04:20:46;6.30;99.90
17341;DHT22;8788;49.930;8.660;2023-04-03T04:23:18;6.40;99.90
17341;DHT22;8788;49.930;8.660;2023-04-03T04:25:47;6.40;99.90
17341;DHT22;8788;49.930;8.660;2023-04-03T04:28:15;6.30;99.90
17341;DHT22;8788;49.930;8.660;2023-04-03T04:30:42;6.30;99.90
17341;DHT22;8788;49.930;8.660;2023-04-03T04:33:10;6.30;99.90
17341;DHT22;8788;49.930;8.660;2023-04-03T04:35:38;6.20;99.90
17341;DHT22;8788;49.930;8.660;2023-04-03T04:38:05;6.30;99.90
17341;DHT22;8788;49.930;8.660;2023-04-03T04:40:35;6.30;99.90
17341;DHT22;8788;49.930;8.660;2023-04-03T04:43:03;6.30;99.90
17341;DHT22;8788;49.930;8.660;2023-04-03T04:45:30;6.30;99.90
17341;DHT22;8788;49.930;8.660;2023-04-03T04:47:58;6.30;99.90
17341;DHT22;8788;49.930;8.660;2023-04-03T04:50:26;6.30;99.90
17341;DHT22;8788;49.930;8.660;2023-04-03T04:52:54;6.30;99.90
17341;DHT22;8788;49.930;8.660;2023-04-03T04:55:21;6.20;99.90
17341;DHT22;8788;49.930;8.660;2023-04-03T04:57:51;6.30;99.90
17341;DHT22;8788;49.930;8.660;2023-04-03T05:00:20;6.20;99.90
17341;DHT22;8788;49.930;8.660;2023-04-03T05:02:47;6.10;99.90
17341;DHT22;8788;49.930;8.660;2023-04-03T05:05:14;6.10;99.90
17341;DHT22;8788;49.930;8.660;2023-04-03T05:07:41;6.10;99.90
17341;DHT22;8788;49.930;8.660;2023-04-03T05:10:09;6.10;99.90
17341;DHT22;8788;49.930;8.660;2023-04-03T05:12:37;6.10;99.90
17341;DHT22;8788;49.930;8.660;2023-04-03T05:15:07;6.10;99.90
17341;DHT22;8788;49.930;8.660;2023-04-03T05:17:35;6.10;99.90
17341;DHT22;8788;49.930;8.660;2023-04-03T05:20:05;6.00;99.90
17341;DHT22;8788;49.930;8.660;2023-04-03T05:22:33;5.90;99.90
17341;DHT22;8788;49.930;8.660;2023-04-03T05:25:06;5.90;99.90
17341;DHT22;8788;49.930;8.660;2023-04-03T05:27:34;6.00;99.90
17341;DHT22;8788;49.930;8.660;2023-04-03T05:30:02;6.00;99.90
17341;DHT22;8788;49.930;8.660;2023-04-03T05:32:33;6.00;99.90
17341;DHT22;8788;49.930;8.660;2023-04-03T05:35:11;6.10;99.90
17341;DHT22;8788;49.930;8.660;2023-04-03T05:37:39;6.00;99.90
17341;DHT22;8788;49.930;8.660;2023-04-03T05:40:08;6.10;99.90
17341;DHT22;8788;49.930;8.660;2023-04-03T05:42:36;6.10;99.90
17341;DHT22;8788;49.930;8.660;2023-04-03T05:45:04;6.00;99.90
17341;DHT22;8788;49.930;8.660;2023-04-03T05:47:33;6.00;99.90
17341;DHT22;8788;49.930;8.660;2023-04-03T05:50:00;6.10;99.90
17341;DHT22;8788;49.930;8.660;2023-04-03T05:52:29;6.00;99.90
17341;DHT22;8788;49.930;8.660;2023-04-03T05:54:57;6.10;99.90
17341;DHT22;8788;49.930;8.660;2023-04-03T05:57:27;6.00;99.90
17341;DHT22;8788;49.930;8.660;2023-04-03T05:59:56;6.00;99.90
17341;DHT22;8788;49.930;8.660;2023-04-03T06:02:24;6.00;99.90
17341;DHT22;8788;49.930;8.660;2023-04-03T06:04:54;6.10;99.90
17341;DHT22;8788;49.930;8.660;2023-04-03T06:07:23;6.10;99.90
17341;DHT22;8788;49.930;8.660;2023-04-03T06:09:52;6.10;99.90
17341;DHT22;8788;49.930;8.660;2023-04-03T06:12:19;6.20;99.90
17341;DHT22;8788;49.930;8.660;2023-04-03T06:14:46;6.10;99.90
17341;DHT22;8788;49.930;8.660;2023-04-03T06:17:15;6.10;99.90
17341;DHT22;8788;49.930;8.660;2023-04-03T06:19:43;6.20;99.90
17341;DHT22;8788;49.930;8.660;2023-04-03T06:22:13;6.10;99.90
17341;DHT22;8788;49.930;8.660;2023-04-03T06:24:41;6.10;99.90
17341;DHT22;8788;49.930;8.660;2023-04-03T06:27:10;6.20;99.90
17341;DHT22;8788;49.930;8.660;2023-04-03T06:29:38;6.20;99.90
17341;DHT22;8788;49.930;8.660;2023-04-03T06:32:05;6.10;99.90
17341;DHT22;8788;49.930;8.660;2023-04-03T06:34:32;6.00;99.90
17341;DHT22;8788;49.930;8.660;2023-04-03T06:37:01;6.00;99.90
17341;DHT22;8788;49.930;8.660;2023-04-03T06:39:29;6.10;99.90
17341;DHT22;8788;49.930;8.660;2023-04-03T06:41:56;6.30;99.90
17341;DHT22;8788;49.930;8.660;2023-04-03T06:44:34;6.20;99.90
17341;DHT22;8788;49.930;8.660;2023-04-03T06:47:01;6.20;99.90
17341;DHT22;8788;49.930;8.660;2023-04-03T06:49:28;6.10;99.90
17341;DHT22;8788;49.930;8.660;2023-04-03T06:51:56;6.20;99.90
17341;DHT22;8788;49.930;8.660;2023-04-03T06:54:23;6.20;99.90
17341;DHT22;8788;49.930;8.660;2023-04-03T06:56:51;6.30;99.90
17341;DHT22;8788;49.930;8.660;2023-04-03T06:59:18;6.30;99.90
17341;DHT22;8788;49.930;8.660;2023-04-03T07:01:46;6.30;99.90
17341;DHT22;8788;49.930;8.660;2023-04-03T07:04:13;6.50;99.90
17341;DHT22;8788;49.930;8.660;2023-04-03T07:06:40;6.60;99.90
17341;DHT22;8788;49.930;8.660;2023-04-03T07:09:07;6.60;99.90
17341;DHT22;8788;49.930;8.660;2023-04-03T07:11:34;6.50;99.90
17341;DHT22;8788;49.930;8.660;2023-04-03T07:14:03;6.50;99.90
17341;DHT22;8788;49.930;8.660;2023-04-03T07:16:31;6.60;99.90
17341;DHT22;8788;49.930;8.660;2023-04-03T07:18:58;6.60;99.90
17341;DHT22;8788;49.930;8.660;2023-04-03T07:21:25;6.60;99.90
17341;DHT22;8788;49.930;8.660;2023-04-03T07:23:53;6.60;99.90
17341;DHT22;8788;49.930;8.660;2023-04-03T07:26:20;6.60;99.90
17341;DHT22;8788;49.930;8.660;2023-04-03T07:28:48;6.70;99.90
17341;DHT22;8788;49.930;8.660;2023-04-03T07:31:17;6.70;99.90
17341;DHT22;8788;49.930;8.660;2023-04-03T07:33:44;6.70;99.90
17341;DHT22;8788;49.930;8.660;2023-04-03T07:36:15;6.80;99.90
17341;DHT22;8788;49.930;8.660;2023-04-03T07:38:42;6.80;99.90
17341;DHT22;8788;49.930;8.660;2023-04-03T07:41:12;6.80;99.90
17341;DHT22;8788;49.930;8.660;2023-04-03T07:43:40;6.90;99.90
17341;DHT22;8788;49.930;8.660;2023-04-03T07:46:08;7.00;99.90
17341;DHT22;8788;49.930;8.660;2023-04-03T07:48:36;6.90;99.90
17341;DHT22;8788;49.930;8.660;2023-04-03T07:51:04;7.00;99.90
17341;DHT22;8788;49.930;8.660;2023-04-03T07:53:32;6.80;99.90
17341;DHT22;8788;49.930;8.660;2023-04-03T07:55:59;6.80;99.90
17341;DHT22;8788;49.930;8.660;2023-04-03T07:58:28;6.80;99.90
17341;DHT22;8788;49.930;8.660;2023-04-03T08:00:55;6.90;99.90
17341;DHT22;8788;49.930;8.660;2023-04-03T08:03:23;6.90;99.90
17341;DHT22;8788;49.930;8.660;2023-04-03T08:05:51;7.10;99.90
17341;DHT22;8788;49.930;8.660;2023-04-03T08:08:20;7.20;99.90
17341;DHT22;8788;49.930;8.660;2023-04-03T08:10:49;7.30;99.90
17341;DHT22;8788;49.930;8.660;2023-04-03T08:13:17;7.50;99.90
17341;DHT22;8788;49.930;8.660;2023-04-03T08:15:44;7.60;99.90
17341;DHT22;8788;49.930;8.660;2023-04-03T08:18:12;7.60;99.90
17341;DHT22;8788;49.930;8.660;2023-04-03T08:20:39;7.70;99.90
17341;DHT22;8788;49.930;8.660;2023-04-03T08:23:08;7.70;99.90
17341;DHT22;8788;49.930;8.660;2023-04-03T08:25:38;7.80;99.90
17341;DHT22;8788;49.930;8.660;2023-04-03T08:28:05;7.70;99.90
17341;DHT22;8788;49.930;8.660;2023-04-03T08:30:33;7.60;99.90
17341;DHT22;8788;49.930;8.660;2023-04-03T08:33:00;7.60;99.90
17341;DHT22;8788;49.930;8.660;2023-04-03T08:35:28;7.70;99.90
17341;DHT22;8788;49.930;8.660;2023-04-03T08:37:55;7.90;99.90
17341;DHT22;8788;49.930;8.660;2023-04-03T08:40:24;8.10;99.90
17341;DHT22;8788;49.930;8.660;2023-04-03T08:42:58;8.30;99.90
17341;DHT22;8788;49.930;8.660;2023-04-03T08:45:38;8.40;99.90
17341;DHT22;8788;49.930;8.660;2023-04-03T08:48:14;8.50;99.90
17341;DHT22;8788;49.930;8.660;2023-04-03T08:50:45;8.70;99.90
17341;DHT22;8788;49.930;8.660;2023-04-03T08:53:15;8.70;99.90
17341;DHT22;8788;49.930;8.660;2023-04-03T08:55:45;8.70;99.90
17341;DHT22;8788;49.930;8.660;2023-04-03T08:58:16;8.80;99.90
17341;DHT22;8788;49.930;8.660;2023-04-03T09:00:47;9.00;99.90
17341;DHT22;8788;49.930;8.660;2023-04-03T09:03:17;9.10;99.90
17341;DHT22;8788;49.930;8.660;2023-04-03T09:05:48;9.20;99.90
17341;DHT22;8788;49.930;8.660;2023-04-03T09:08:22;9.30;99.90
17341;DHT22;8788;49.930;8.660;2023-04-03T09:11:01;9.50;99.90
17341;DHT22;8788;49.930;8.660;2023-04-03T09:13:35;9.60;99.90
17341;DHT22;8788;49.930;8.660;2023-04-03T09:16:18;9.80;99.90
17341;DHT22;8788;49.930;8.660;2023-04-03T09:18:53;9.80;99.90
17341;DHT22;8788;49.930;8.660;2023-04-03T09:21:26;10.00;99.90
17341;DHT22;8788;49.930;8.660;2023-04-03T09:23:57;9.90;99.90
17341;DHT22;8788;49.930;8.660;2023-04-03T09:26:30;9.60;99.90
17341;DHT22;8788;49.930;8.660;2023-04-03T09:29:00;9.40;99.90
17341;DHT22;8788;49.930;8.660;2023-04-03T09:31:35;9.50;99.90
17341;DHT22;8788;49.930;8.660;2023-04-03T09:34:06;9.50;99.90
17341;DHT22;8788;49.930;8.660;2023-04-03T09:36:39;9.40;99.90
17341;DHT22;8788;49.930;8.660;2023-04-03T09:39:11;9.30;99.90
17341;DHT22;8788;49.930;8.660;2023-04-03T09:41:39;9.20;99.90
17341;DHT22;8788;49.930;8.660;2023-04-03T09:44:21;9.00;99.90
17341;DHT22;8788;49.930;8.660;2023-04-03T09:46:48;9.00;99.90
17341;DHT22;8788;49.930;8.660;2023-04-03T09:49:18;9.20;99.90
17341;DHT22;8788;49.930;8.660;2023-04-03T09:51:45;9.20;99.90
17341;DHT22;8788;49.930;8.660;2023-04-03T09:54:39;9.20;99.90
17341;DHT22;8788;49.930;8.660;2023-04-03T09:57:10;9.20;99.90
17341;DHT22;8788;49.930;8.660;2023-04-03T09:59:44;9.20;99.90
17341;DHT22;8788;49.930;8.660;2023-04-03T10:02:28;9.50;99.90
17341;DHT22;8788;49.930;8.660;2023-04-03T10:04:56;9.60;99.90
17341;DHT22;8788;49.930;8.660;2023-04-03T10:07:30;9.70;99.90
17341;DHT22;8788;49.930;8.660;2023-04-03T10:09:58;9.80;99.90
17341;DHT22;8788;49.930;8.660;2023-04-03T10:12:28;10.00;99.90
17341;DHT22;8788;49.930;8.660;2023-04-03T10:14:57;10.30;99.90
17341;DHT22;8788;49.930;8.660;2023-04-03T10:17:36;10.50;99.90
17341;DHT22;8788;49.930;8.660;2023-04-03T10:20:16;10.50;99.90
17341;DHT22;8788;49.930;8.660;2023-04-03T10:22:56;10.60;99.90
17341;DHT22;8788;49.930;8.660;2023-04-03T10:25:32;10.70;99.90
17341;DHT22;8788;49.930;8.660;2023-04-03T10:28:06;10.90;99.90
17341;DHT22;8788;49.930;8.660;2023-04-03T10:30:44;11.10;99.90
17341;DHT22;8788;49.930;8.660;2023-04-03T10:33:39;11.20;99.90
17341;DHT22;8788;49.930;8.660;2023-04-03T10:36:16;11.30;99.90
17341;DHT22;8788;49.930;8.660;2023-04-03T10:38:53;11.10;99.90
17341;DHT22;8788;49.930;8.660;2023-04-03T10:41:26;11.00;99.90
17341;DHT22;8788;49.930;8.660;2023-04-03T10:44:08;10.80;99.90
17341;DHT22;8788;49.930;8.660;2023-04-03T10:46:38;10.70;99.90
17341;DHT22;8788;49.930;8.660;2023-04-03T10:49:29;10.60;99.40
17341;DHT22;8788;49.930;8.660;2023-04-03T10:52:05;10.50;99.00
17341;DHT22;8788;49.930;8.660;2023-04-03T10:54:38;10.30;99.10
17341;DHT22;8788;49.930;8.660;2023-04-03T10:57:08;10.20;98.90
17341;DHT22;8788;49.930;8.660;2023-04-03T10:59:41;10.60;99.60
17341;DHT22;8788;49.930;8.660;2023-04-03T11:02:16;10.90;99.80
17341;DHT22;8788;49.930;8.660;2023-04-03T11:04:48;11.20;98.90
17341;DHT22;8788;49.930;8.660;2023-04-03T11:07:20;11.30;98.10
17341;DHT22;8788;49.930;8.660;2023-04-03T11:09:50;11.40;98.10
17341;DHT22;8788;49.930;8.660;2023-04-03T11:12:23;11.30;97.70
17341;DHT22;8788;49.930;8.660;2023-04-03T11:14:55;11.10;97.40
17341;DHT22;8788;49.930;8.660;2023-04-03T11:17:28;11.20;97.50
17341;DHT22;8788;49.930;8.660;2023-04-03T11:20:03;11.30;97.60
17341;DHT22;8788;49.930;8.660;2023-04-03T11:22:35;11.40;97.50
17341;DHT22;8788;49.930;8.660;2023-04-03T11:25:06;11.40;97.50
17341;DHT22;8788;49.930;8.660;2023-04-03T11:27:43;11.50;97.30
17341;DHT22;8788;49.930;8.660;2023-04-03T11:30:19;11.50;96.30
17341;DHT22;8788;49.930;8.660;2023-04-03T11:33:00;11.20;95.60
17341;DHT22;8788;49.930;8.660;2023-04-03T11:35:30;11.10;95.90
17341;DHT22;8788;49.930;8.660;2023-04-03T11:38:00;11.30;96.90
17341;DHT22;8788;49.930;8.660;2023-04-03T11:40:29;11.60;96.40
17341;DHT22;8788;49.930;8.660;2023-04-03T11:43:06;11.90;96.60
17341;DHT22;8788;49.930;8.660;2023-04-03T11:45:49;12.00;95.60
17341;DHT22;8788;49.930;8.660;2023-04-03T11:48:48;11.80;95.00
17341;DHT22;8788;49.930;8.660;2023-04-03T11:51:42;11.80;94.70
17341;DHT22;8788;49.930;8.660;2023-04-03T11:54:46;11.80;95.40
17341;DHT22;8788;49.930;8.660;2023-04-03T12:00:54;11.80;93.90
17341;DHT22;8788;49.930;8.660;2023-04-03T12:07:01;11.40;93.10
17341;DHT22;8788;49.930;8.660;2023-04-03T12:12:39;11.80;93.20
17341;DHT22;8788;49.930;8.660;2023-04-03T12:15:21;12.00;93.20
17341;DHT22;8788;49.930;8.660;2023-04-03T12:17:50;12.20;93.00
17341;DHT22;8788;49.930;8.660;2023-04-03T12:20:57;12.40;92.20
17341;DHT22;8788;49.930;8.660;2023-04-03T12:23:26;12.50;92.00
17341;DHT22;8788;49.930;8.660;2023-04-03T12:26:04;12.60;91.80
17341;DHT22;8788;49.930;8.660;2023-04-03T12:28:38;12.70;91.10
17341;DHT22;8788;49.930;8.660;2023-04-03T12:31:08;12.80;90.70
17341;DHT22;8788;49.930;8.660;2023-04-03T12:33:51;12.70;90.20
17341;DHT22;8788;49.930;8.660;2023-04-03T12:36:31;12.50;88.30
17341;DHT22;8788;49.930;8.660;2023-04-03T12:39:13;12.30;87.50
17341;DHT22;8788;49.930;8.660;2023-04-03T12:41:50;12.20;87.50
17341;DHT22;8788;49.930;8.660;2023-04-03T12:44:36;12.10;88.20
17341;DHT22;8788;49.930;8.660;2023-04-03T12:47:21;12.20;88.40
17341;DHT22;8788;49.930;8.660;2023-04-03T12:49:52;12.40;87.50
17341;DHT22;8788;49.930;8.660;2023-04-03T12:52:30;12.30;86.60
17341;DHT22;8788;49.930;8.660;2023-04-03T12:55:00;12.40;85.10
17341;DHT22;8788;49.930;8.660;2023-04-03T12:57:30;12.40;82.70
17341;DHT22;8788;49.930;8.660;2023-04-03T12:59:58;12.50;82.80
17341;DHT22;8788;49.930;8.660;2023-04-03T13:02:28;12.60;82.50
17341;DHT22;8788;49.930;8.660;2023-04-03T13:04:58;12.80;82.60
17341;DHT22;8788;49.930;8.660;2023-04-03T13:07:29;12.90;80.80
17341;DHT22;8788;49.930;8.660;2023-04-03T13:09:59;12.90;79.40
17341;DHT22;8788;49.930;8.660;2023-04-03T13:12:27;12.80;78.70
17341;DHT22;8788;49.930;8.660;2023-04-03T13:14:55;12.80;78.60
17341;DHT22;8788;49.930;8.660;2023-04-03T13:17:24;12.80;77.60
17341;DHT22;8788;49.930;8.660;2023-04-03T13:19:54;12.80;78.70
17341;DHT22;8788;49.930;8.660;2023-04-03T13:22:29;12.80;78.70
17341;DHT22;8788;49.930;8.660;2023-04-03T13:25:03;12.90;79.40
17341;DHT22;8788;49.930;8.660;2023-04-03T13:27:32;13.10;79.40
17341;DHT22;8788;49.930;8.660;2023-04-03T13:30:01;13.20;78.00
17341;DHT22;8788;49.930;8.660;2023-04-03T13:32:31;13.30;78.10
17341;DHT22;8788;49.930;8.660;2023-04-03T13:34:59;13.30;77.30
17341;DHT22;8788;49.930;8.660;2023-04-03T13:37:29;13.30;77.40
17341;DHT22;8788;49.930;8.660;2023-04-03T13:39:59;13.30;77.70
17341;DHT22;8788;49.930;8.660;2023-04-03T13:42:28;13.50;77.30
17341;DHT22;8788;49.930;8.660;2023-04-03T13:45:26;13.50;77.90
17341;DHT22;8788;49.930;8.660;2023-04-03T13:48:08;13.70;78.60
17341;DHT22;8788;49.930;8.660;2023-04-03T13:50:56;13.70;77.20
17341;DHT22;8788;49.930;8.660;2023-04-03T13:53:26;13.90;78.20
17341;DHT22;8788;49.930;8.660;2023-04-03T13:56:07;13.70;76.10
17341;DHT22;8788;49.930;8.660;2023-04-03T13:58:36;13.40;76.40
17341;DHT22;8788;49.930;8.660;2023-04-03T14:01:10;13.10;75.70
17341;DHT22;8788;49.930;8.660;2023-04-03T14:03:43;13.20;77.10
17341;DHT22;8788;49.930;8.660;2023-04-03T14:06:14;13.50;77.10
17341;DHT22;8788;49.930;8.660;2023-04-03T14:08:42;13.80;76.90
17341;DHT22;8788;49.930;8.660;2023-04-03T14:11:13;14.20;77.80
17341;DHT22;8788;49.930;8.660;2023-04-03T14:13:42;14.30;75.50
17341;DHT22;8788;49.930;8.660;2023-04-03T14:16:13;14.10;74.90
17341;DHT22;8788;49.930;8.660;2023-04-03T14:18:40;14.30;75.80
17341;DHT22;8788;49.930;8.660;2023-04-03T14:21:10;14.70;76.20
17341;DHT22;8788;49.930;8.660;2023-04-03T14:23:38;14.80;74.90
17341;DHT22;8788;49.930;8.660;2023-04-03T14:26:10;14.80;74.70
17341;DHT22;8788;49.930;8.660;2023-04-03T14:28:39;14.70;72.40
17341;DHT22;8788;49.930;8.660;2023-04-03T14:31:06;14.40;73.20
17341;DHT22;8788;49.930;8.660;2023-04-03T14:33:33;14.60;74.20
17341;DHT22;8788;49.930;8.660;2023-04-03T14:36:11;14.90;72.40
17341;DHT22;8788;49.930;8.660;2023-04-03T14:38:38;14.90;70.00
17341;DHT22;8788;49.930;8.660;2023-04-03T14:41:07;14.40;70.20
17341;DHT22;8788;49.930;8.660;2023-04-03T14:43:37;14.10;70.50
17341;DHT22;8788;49.930;8.660;2023-04-03T14:46:04;14.30;71.30
17341;DHT22;8788;49.930;8.660;2023-04-03T14:48:32;14.60;71.00
17341;DHT22;8788;49.930;8.660;2023-04-03T14:50:59;14.90;71.10
17341;DHT22;8788;49.930;8.660;2023-04-03T14:53:26;15.10;70.90
17341;DHT22;8788;49.930;8.660;2023-04-03T14:55:55;15.10;68.50
17341;DHT22;8788;49.930;8.660;2023-04-03T14:58:23;14.70;69.10
17341;DHT22;8788;49.930;8.660;2023-04-03T15:00:50;14.90;69.90
17341;DHT22;8788;49.930;8.660;2023-04-03T15:03:19;15.00;68.50
17341;DHT22;8788;49.930;8.660;2023-04-03T15:05:48;15.20;69.00
17341;DHT22;8788;49.930;8.660;2023-04-03T15:08:19;15.30;68.00
17341;DHT22;8788;49.930;8.660;2023-04-03T15:10:47;15.50;68.70
17341;DHT22;8788;49.930;8.660;2023-04-03T15:13:15;15.60;67.40
17341;DHT22;8788;49.930;8.660;2023-04-03T15:15:44;15.60;67.50
17341;DHT22;8788;49.930;8.660;2023-04-03T15:18:16;15.70;66.70
17341;DHT22;8788;49.930;8.660;2023-04-03T15:20:44;15.70;65.40
17341;DHT22;8788;49.930;8.660;2023-04-03T15:23:12;15.70;65.60
17341;DHT22;8788;49.930;8.660;2023-04-03T15:25:42;15.80;67.10
17341;DHT22;8788;49.930;8.660;2023-04-03T15:28:15;15.90;68.20
17341;DHT22;8788;49.930;8.660;2023-04-03T15:30:44;16.30;67.50
17341;DHT22;8788;49.930;8.660;2023-04-03T15:33:11;16.60;67.80
17341;DHT22;8788;49.930;8.660;2023-04-03T15:35:38;16.70;65.90
17341;DHT22;8788;49.930;8.660;2023-04-03T15:38:06;16.70;64.80
17341;DHT22;8788;49.930;8.660;2023-04-03T15:40:33;17.10;66.60
17341;DHT22;8788;49.930;8.660;2023-04-03T15:43:00;18.10;65.80
17341;DHT22;8788;49.930;8.660;2023-04-03T15:45:29;19.00;64.20
17341;DHT22;8788;49.930;8.660;2023-04-03T15:47:58;20.10;62.70
17341;DHT22;8788;49.930;8.660;2023-04-03T15:50:25;20.40;58.40
17341;DHT22;8788;49.930;8.660;2023-04-03T15:52:52;20.30;57.10
17341;DHT22;8788;49.930;8.660;2023-04-03T15:55:21;20.20;57.60
17341;DHT22;8788;49.930;8.660;2023-04-03T15:57:48;20.40;58.30
17341;DHT22;8788;49.930;8.660;2023-04-03T16:00:16;20.80;57.20
17341;DHT22;8788;49.930;8.660;2023-04-03T16:02:44;21.00;56.00
17341;DHT22;8788;49.930;8.660;2023-04-03T16:05:14;20.50;54.80
17341;DHT22;8788;49.930;8.660;2023-04-03T16:07:43;19.80;54.00
17341;DHT22;8788;49.930;8.660;2023-04-03T16:10:12;19.00;54.30
17341;DHT22;8788;49.930;8.660;2023-04-03T16:12:40;17.90;54.30
17341;DHT22;8788;49.930;8.660;2023-04-03T16:15:08;17.00;55.10
17341;DHT22;8788;49.930;8.660;2023-04-03T16:17:36;16.70;56.00
17341;DHT22;8788;49.930;8.660;2023-04-03T16:20:05;16.50;56.30
17341;DHT22;8788;49.930;8.660;2023-04-03T16:22:34;16.40;56.50
17341;DHT22;8788;49.930;8.660;2023-04-03T16:25:01;16.60;56.90
17341;DHT22;8788;49.930;8.660;2023-04-03T16:27:28;17.00;56.80